createdAt,value
2023-04-26T00:00:08.730Z,96606.94
2023-04-26T00:02:38.847Z,96606.75
2023-04-26T00:05:09.147Z,96605.34
2023-04-26T00:07:38.884Z,96608.75
2023-04-26T00:10:08.414Z,96602.50
2023-04-26T00:12:37.282Z,96601.91
2023-04-26T00:15:06.702Z,96608.38
2023-04-26T00:17:34.961Z,96607.75
2023-04-26T00:20:08.606Z,96613.41
2023-04-26T00:22:36.700Z,96614.41
2023-04-26T00:25:05.221Z,96610.38
2023-04-26T00:27:33.306Z,96612.78
2023-04-26T00:30:01.532Z,96607.13
2023-04-26T00:32:29.693Z,96615.22
2023-04-26T00:34:57.765Z,96615.41
2023-04-26T00:37:27.134Z,96608.34
2023-04-26T00:39:57.214Z,96606.69
2023-04-26T00:42:25.265Z,96612.78
2023-04-26T00:44:57.228Z,96612.78
2023-04-26T00:47:26.758Z,96608.94
2023-04-26T00:49:54.931Z,96604.50
2023-04-26T00:52:23.734Z,96607.31
2023-04-26T00:54:54.604Z,96610.53
2023-04-26T00:57:23.057Z,96612.38
2023-04-26T00:59:51.369Z,96609.50
2023-04-26T01:02:19.514Z,96616.78
2023-04-26T01:04:48.186Z,96615.97
2023-04-26T01:07:16.421Z,96606.50
2023-04-26T01:09:45.668Z,96609.50
2023-04-26T01:12:15.572Z,96612.13
2023-04-26T01:14:44.994Z,96608.91
2023-04-26T01:17:14.696Z,96607.88
2023-04-26T01:19:48.834Z,96602.63
2023-04-26T01:22:17.801Z,96602.22
2023-04-26T01:24:51.519Z,96611.66
2023-04-26T01:27:20.628Z,96616.28
2023-04-26T01:29:48.985Z,96612.06
2023-04-26T01:32:17.241Z,96607.38
2023-04-26T01:34:45.320Z,96608.22
2023-04-26T01:37:13.446Z,96621.31
2023-04-26T01:39:41.585Z,96617.03
2023-04-26T01:42:11.011Z,96612.81
2023-04-26T01:44:39.439Z,96602.50
2023-04-26T01:47:07.470Z,96600.72
2023-04-26T01:49:35.952Z,96599.88
2023-04-26T01:52:04.445Z,96604.13
2023-04-26T01:54:32.498Z,96599.47
2023-04-26T01:57:02.620Z,96597.66
2023-04-26T01:59:32.153Z,96598.09
2023-04-26T02:02:00.992Z,96595.06
2023-04-26T02:04:29.489Z,96586.56
2023-04-26T02:06:58.172Z,96591.00
2023-04-26T02:09:26.401Z,96594.25
2023-04-26T02:11:54.440Z,96595.66
2023-04-26T02:14:22.520Z,96596.03
2023-04-26T02:16:52.491Z,96602.09
2023-04-26T02:19:21.056Z,96605.50
2023-04-26T02:21:57.914Z,96605.94
2023-04-26T02:24:26.498Z,96606.50
2023-04-26T02:26:54.971Z,96609.31
2023-04-26T02:29:36.191Z,96608.94
2023-04-26T02:32:12.179Z,96603.84
2023-04-26T02:34:44.324Z,96609.91
2023-04-26T02:37:12.432Z,96616.19
2023-04-26T02:39:40.530Z,96610.53
2023-04-26T02:42:11.265Z,96604.44
2023-04-26T02:44:40.013Z,96610.50
2023-04-26T02:47:08.779Z,96605.44
2023-04-26T02:49:38.360Z,96599.00
2023-04-26T02:52:06.498Z,96602.06
2023-04-26T02:54:34.749Z,96601.03
2023-04-26T02:57:02.880Z,96596.19
2023-04-26T02:59:31.499Z,96600.41
2023-04-26T03:01:59.842Z,96605.66
2023-04-26T03:04:28.804Z,96609.28
2023-04-26T03:06:58.250Z,96608.88
2023-04-26T03:09:26.666Z,96606.44
2023-04-26T03:11:54.712Z,96602.59
2023-04-26T03:14:23.041Z,96607.41
2023-04-26T03:16:51.487Z,96608.03
2023-04-26T03:19:19.700Z,96603.38
2023-04-26T03:21:48.613Z,96608.44
2023-04-26T03:24:18.286Z,96615.94
2023-04-26T03:26:46.869Z,96614.50
2023-04-26T03:29:15.196Z,96609.66
2023-04-26T03:31:43.267Z,96612.03
2023-04-26T03:34:11.986Z,96606.91
2023-04-26T03:36:40.219Z,96606.66
2023-04-26T03:39:08.420Z,96606.22
2023-04-26T03:41:39.652Z,96604.66
2023-04-26T03:44:10.798Z,96598.59
2023-04-26T03:46:40.498Z,96591.38
2023-04-26T03:49:08.841Z,96607.09
2023-04-26T03:51:37.002Z,96595.16
2023-04-26T03:54:06.546Z,96602.19
2023-04-26T03:56:34.633Z,96609.41
2023-04-26T03:59:04.492Z,96609.00
2023-04-26T04:01:33.227Z,96610.38
2023-04-26T04:04:02.009Z,96610.38
2023-04-26T04:06:31.049Z,96613.19
2023-04-26T04:08:59.201Z,96611.13
2023-04-26T04:11:27.309Z,96609.34
2023-04-26T04:13:55.626Z,96605.25
2023-04-26T04:16:25.225Z,96610.94
2023-04-26T04:18:53.752Z,96608.31
2023-04-26T04:21:22.249Z,96605.72
2023-04-26T04:23:51.134Z,96610.53
2023-04-26T04:26:19.301Z,96602.22
2023-04-26T04:28:47.468Z,96609.72
2023-04-26T04:31:16.185Z,96614.53
2023-04-26T04:33:45.705Z,96614.16
2023-04-26T04:36:16.997Z,96618.75
2023-04-26T04:38:46.386Z,96618.94
2023-04-26T04:41:16.976Z,96616.69
2023-04-26T04:43:45.644Z,96624.56
2023-04-26T04:46:13.728Z,96610.91
2023-04-26T04:48:43.235Z,96614.53
2023-04-26T04:51:12.753Z,96612.09
2023-04-26T04:53:41.700Z,96613.72
2023-04-26T04:56:10.627Z,96626.63
2023-04-26T04:58:39.010Z,96639.31
2023-04-26T05:01:12.062Z,96646.34
2023-04-26T05:03:51.354Z,96642.09
2023-04-26T05:06:21.594Z,96637.06
2023-04-26T05:08:50.183Z,96649.97
2023-04-26T05:11:18.895Z,96649.59
2023-04-26T05:13:47.792Z,96646.72
2023-04-26T05:16:17.676Z,96647.91
2023-04-26T05:18:45.947Z,96650.34
2023-04-26T05:21:14.178Z,96654.38
2023-04-26T05:23:43.629Z,96657.63
2023-04-26T05:26:17.244Z,96666.47
2023-04-26T05:29:04.073Z,96660.50
2023-04-26T05:31:41.681Z,96668.97
2023-04-26T05:34:24.627Z,96667.78
2023-04-26T05:36:57.015Z,96665.41
2023-04-26T05:39:26.783Z,96670.47
2023-04-26T05:41:55.077Z,96672.06
2023-04-26T05:44:23.323Z,96678.50
2023-04-26T05:46:51.626Z,96678.19
2023-04-26T05:49:19.801Z,96675.56
2023-04-26T05:51:48.191Z,96666.91
2023-04-26T05:54:16.349Z,96673.03
2023-04-26T05:56:46.002Z,96662.78
2023-04-26T05:59:19.034Z,96667.25
2023-04-26T06:01:47.470Z,96671.13
2023-04-26T06:04:15.960Z,96675.16
2023-04-26T06:06:56.309Z,96675.97
2023-04-26T06:09:24.671Z,96682.31
2023-04-26T06:11:54.399Z,96683.97
2023-04-26T06:14:29.941Z,96682.75
2023-04-26T06:17:03.404Z,96684.00
2023-04-26T06:19:31.743Z,96689.03
2023-04-26T06:21:59.984Z,96686.81
2023-04-26T06:24:31.354Z,96686.81
2023-04-26T06:27:01.467Z,96687.53
2023-04-26T06:29:34.622Z,96686.91
2023-04-26T06:32:02.957Z,96687.38
2023-04-26T06:34:31.640Z,96694.47
2023-04-26T06:37:00.815Z,96693.25
2023-04-26T06:39:29.837Z,96691.44
2023-04-26T06:41:58.159Z,96687.81
2023-04-26T06:44:31.648Z,96681.19
2023-04-26T06:47:04.022Z,96685.44
2023-04-26T06:49:33.512Z,96686.28
2023-04-26T06:52:01.799Z,96681.88
2023-04-26T06:54:30.520Z,96690.13
2023-04-26T06:57:00.815Z,96684.69
2023-04-26T06:59:31.269Z,96696.81
2023-04-26T07:02:00.677Z,96689.38
2023-04-26T07:04:29.297Z,96684.34
2023-04-26T07:06:57.905Z,96685.94
2023-04-26T07:09:25.979Z,96679.28
2023-04-26T07:11:54.190Z,96681.16
2023-04-26T07:14:22.363Z,96683.59
2023-04-26T07:16:51.896Z,96683.59
2023-04-26T07:19:20.034Z,96677.13
2023-04-26T07:21:48.202Z,96679.97
2023-04-26T07:24:16.510Z,96681.00
2023-04-26T07:26:44.590Z,96678.34
2023-04-26T07:29:12.798Z,96676.13
2023-04-26T07:31:41.663Z,96673.09
2023-04-26T07:34:11.142Z,96665.81
2023-04-26T07:36:41.709Z,96670.66
2023-04-26T07:39:10.776Z,96673.09
2023-04-26T07:41:40.210Z,96669.25
2023-04-26T07:44:09.708Z,96663.41
2023-04-26T07:46:37.946Z,96659.94
2023-04-26T07:49:06.054Z,96654.09
2023-04-26T07:51:39.615Z,96669.66
2023-04-26T07:54:08.133Z,96661.13
2023-04-26T07:56:39.377Z,96667.63
2023-04-26T07:59:07.722Z,96673.28
2023-04-26T08:01:35.857Z,96669.22
2023-04-26T08:04:05.017Z,96668.84
2023-04-26T08:06:33.809Z,96675.88
2023-04-26T08:09:04.998Z,96676.28
2023-04-26T08:11:33.735Z,96677.50
2023-04-26T08:14:01.888Z,96673.59
2023-04-26T08:16:30.285Z,96675.59
2023-04-26T08:19:02.800Z,96684.69
2023-04-26T08:21:31.048Z,96680.28
2023-04-26T08:23:59.216Z,96677.41
2023-04-26T08:26:28.886Z,96673.75
2023-04-26T08:28:57.389Z,96685.28
2023-04-26T08:31:25.522Z,96683.00
2023-04-26T08:33:54.230Z,96680.53
2023-04-26T08:36:22.645Z,96680.53
2023-04-26T08:38:51.260Z,96679.75
2023-04-26T08:41:24.848Z,96686.47
2023-04-26T08:43:58.348Z,96684.81
2023-04-26T08:46:27.947Z,96684.63
2023-04-26T08:49:05.605Z,96679.94
2023-04-26T08:51:35.959Z,96681.91
2023-04-26T08:54:06.361Z,96682.91
2023-04-26T08:56:35.340Z,96685.50
2023-04-26T08:59:04.986Z,96678.72
2023-04-26T09:01:34.347Z,96681.13
2023-04-26T09:04:03.446Z,96681.06
2023-04-26T09:06:32.066Z,96677.81
2023-04-26T09:09:04.882Z,96678.59
2023-04-26T09:11:33.196Z,96676.19
2023-04-26T09:14:01.392Z,96671.94
2023-04-26T09:16:37.937Z,96670.72
2023-04-26T09:19:06.160Z,96670.81
2023-04-26T09:21:34.307Z,96664.53
2023-04-26T09:24:04.663Z,96664.94
2023-04-26T09:26:32.865Z,96667.81
2023-04-26T09:29:15.750Z,96661.34
2023-04-26T09:31:49.517Z,96665.59
2023-04-26T09:34:18.275Z,96667.22
2023-04-26T09:36:53.723Z,96662.34
2023-04-26T09:39:39.899Z,96660.38
2023-04-26T09:42:36.017Z,96665.25
2023-04-26T09:45:08.768Z,96661.16
2023-04-26T09:47:38.634Z,96662.19
2023-04-26T09:50:08.301Z,96664.19
2023-04-26T09:52:44.609Z,96664.00
2023-04-26T09:55:34.754Z,96669.47
2023-04-26T09:58:10.634Z,96662.56
2023-04-26T10:00:40.698Z,96661.94
2023-04-26T10:03:11.356Z,96663.75
2023-04-26T10:05:39.874Z,96650.72
2023-04-26T10:08:09.323Z,96656.78
2023-04-26T10:10:39.002Z,96657.59
2023-04-26T10:13:07.919Z,96653.31
2023-04-26T10:15:37.183Z,96653.31
2023-04-26T10:18:05.614Z,96655.75
2023-04-26T10:20:37.850Z,96648.19
2023-04-26T10:23:10.920Z,96646.59
2023-04-26T10:25:42.398Z,96642.09
2023-04-26T10:28:10.756Z,96639.38
2023-04-26T10:30:57.266Z,96645.13
2023-04-26T10:33:26.430Z,96647.56
2023-04-26T10:36:11.096Z,96638.81
2023-04-26T10:38:42.286Z,96636.81
2023-04-26T10:41:36.618Z,96635.56
2023-04-26T10:44:41.124Z,96639.91
2023-04-26T10:47:23.345Z,96638.75
2023-04-26T10:49:52.205Z,96629.78
2023-04-26T10:52:23.292Z,96625.50
2023-04-26T10:54:54.788Z,96627.25
2023-04-26T10:57:25.450Z,96627.63
2023-04-26T11:00:27.944Z,96627.91
2023-04-26T11:03:13.097Z,96626.88
2023-04-26T11:05:55.684Z,96630.06
2023-04-26T11:08:30.321Z,96626.03
2023-04-26T11:11:08.900Z,96624.66
2023-04-26T11:13:39.815Z,96621.94
2023-04-26T11:16:12.218Z,96620.47
2023-04-26T11:18:42.973Z,96615.41
2023-04-26T11:21:12.860Z,96608.22
2023-04-26T11:23:42.386Z,96596.88
2023-04-26T11:26:10.836Z,96597.25
2023-04-26T11:28:40.415Z,96587.28
2023-04-26T11:31:09.582Z,96592.34
2023-04-26T11:33:37.815Z,96583.47
2023-04-26T11:39:02.581Z,96575.47
2023-04-26T11:41:30.756Z,96572.97
2023-04-26T11:44:01.013Z,96561.09
2023-04-26T11:46:29.365Z,96557.81
2023-04-26T11:48:58.053Z,96554.78
2023-04-26T11:51:26.883Z,96551.84
2023-04-26T11:53:54.966Z,96553.19
2023-04-26T11:56:26.183Z,96556.97
2023-04-26T11:58:54.849Z,96552.16
2023-04-26T12:01:24.668Z,96556.59
2023-04-26T12:03:56.386Z,96554.34
2023-04-26T12:06:33.150Z,96551.75
2023-04-26T12:09:05.519Z,96551.41
2023-04-26T12:11:38.423Z,96557.34
2023-04-26T12:14:08.019Z,96559.41
2023-04-26T12:16:37.905Z,96552.66
2023-04-26T12:19:07.768Z,96551.53
2023-04-26T12:21:42.480Z,96559.25
2023-04-26T12:24:27.528Z,96554.53
2023-04-26T12:26:58.024Z,96551.22
2023-04-26T12:29:29.002Z,96545.25
2023-04-26T12:31:57.317Z,96550.28
2023-04-26T12:34:26.004Z,96547.53
2023-04-26T12:36:55.985Z,96548.13
2023-04-26T12:39:27.150Z,96548.81
2023-04-26T12:42:05.872Z,96550.66
2023-04-26T12:44:39.901Z,96541.19
2023-04-26T12:47:08.299Z,96534.69
2023-04-26T12:49:36.550Z,96545.00
2023-04-26T12:52:04.680Z,96551.53
2023-04-26T12:54:35.908Z,96543.72
2023-04-26T12:57:06.867Z,96544.44
2023-04-26T12:59:38.970Z,96541.91
2023-04-26T13:02:07.809Z,96535.38
2023-04-26T13:04:39.077Z,96537.00
2023-04-26T13:07:09.935Z,96541.81
2023-04-26T13:09:38.300Z,96539.53
2023-04-26T13:12:11.941Z,96526.75
2023-04-26T13:14:40.960Z,96533.53
2023-04-26T13:17:12.819Z,96531.72
2023-04-26T13:19:41.637Z,96531.38
2023-04-26T13:22:12.568Z,96527.84
2023-04-26T13:24:40.772Z,96531.84
2023-04-26T13:27:10.869Z,96539.41
2023-04-26T13:29:39.618Z,96527.34
2023-04-26T13:32:09.377Z,96529.66
2023-04-26T13:34:37.703Z,96521.94
2023-04-26T13:37:06.133Z,96525.06
2023-04-26T13:39:37.142Z,96529.66
2023-04-26T13:42:08.205Z,96530.59
2023-04-26T13:44:37.830Z,96529.66
2023-04-26T13:47:06.842Z,96526.53
2023-04-26T13:49:35.686Z,96533.22
2023-04-26T13:52:04.284Z,96526.09
2023-04-26T13:54:32.363Z,96515.50
2023-04-26T13:57:00.491Z,96520.25
2023-04-26T13:59:28.635Z,96517.94
2023-04-26T14:02:01.230Z,96516.78
2023-04-26T14:04:30.373Z,96511.34
2023-04-26T14:06:59.679Z,96518.84
2023-04-26T14:09:31.663Z,96513.09
2023-04-26T14:12:07.953Z,96517.34
2023-04-26T14:14:37.236Z,96512.50
2023-04-26T14:17:07.209Z,96508.47
2023-04-26T14:19:35.624Z,96514.47
2023-04-26T14:22:04.193Z,96503.06
2023-04-26T14:24:35.429Z,96508.25
2023-04-26T14:27:03.780Z,96507.44
2023-04-26T14:29:32.007Z,96508.72
2023-04-26T14:32:00.207Z,96503.53
2023-04-26T14:34:30.221Z,96505.50
2023-04-26T14:37:01.749Z,96502.63
2023-04-26T14:39:31.226Z,96506.97
2023-04-26T14:41:59.843Z,96515.41
2023-04-26T14:44:28.494Z,96500.22
2023-04-26T14:46:58.418Z,96507.22
2023-04-26T14:49:26.635Z,96502.97
2023-04-26T14:51:56.296Z,96507.78
2023-04-26T14:54:25.028Z,96513.19
2023-04-26T14:56:53.750Z,96513.00
2023-04-26T14:59:22.161Z,96511.94
2023-04-26T15:01:55.777Z,96508.94
2023-04-26T15:04:24.495Z,96509.72
2023-04-26T15:06:53.301Z,96507.56
2023-04-26T15:09:22.837Z,96505.06
2023-04-26T15:11:53.846Z,96503.41
2023-04-26T15:14:31.356Z,96511.84
2023-04-26T15:17:06.366Z,96501.13
2023-04-26T15:19:34.677Z,96501.59
2023-04-26T15:22:03.369Z,96501.84
2023-04-26T15:24:37.245Z,96491.94
2023-04-26T15:27:06.597Z,96494.13
2023-04-26T15:29:34.909Z,96493.78
2023-04-26T15:32:04.008Z,96495.84
2023-04-26T15:34:43.188Z,96490.53
2023-04-26T15:37:11.506Z,96488.38
2023-04-26T15:39:41.219Z,96482.06
2023-04-26T15:42:09.331Z,96490.31
2023-04-26T15:44:37.589Z,96492.19
2023-04-26T15:47:06.028Z,96494.00
2023-04-26T15:49:34.269Z,96486.66
2023-04-26T15:52:02.543Z,96492.19
2023-04-26T15:54:31.041Z,96485.63
2023-04-26T15:57:01.609Z,96489.16
2023-04-26T15:59:30.668Z,96485.38
2023-04-26T16:01:59.166Z,96491.59
2023-04-26T16:04:27.919Z,96493.88
2023-04-26T16:06:56.278Z,96491.78
2023-04-26T16:09:25.768Z,96493.44
2023-04-26T16:11:54.454Z,96490.56
2023-04-26T16:14:23.948Z,96492.63
2023-04-26T16:16:52.009Z,96489.41
2023-04-26T16:19:20.092Z,96500.44
2023-04-26T16:21:48.224Z,96490.09
2023-04-26T16:24:16.470Z,96491.56
2023-04-26T16:26:44.597Z,96491.34
2023-04-26T16:29:13.270Z,96497.41
2023-04-26T16:31:43.060Z,96490.53
2023-04-26T16:34:11.349Z,96486.84
2023-04-26T16:36:39.388Z,96488.13
2023-04-26T16:39:07.833Z,96491.78
2023-04-26T16:41:35.895Z,96492.13
2023-04-26T16:44:03.951Z,96487.88
2023-04-26T16:46:32.356Z,96494.56
2023-04-26T16:49:01.890Z,96486.84
2023-04-26T16:51:30.256Z,96491.19
2023-04-26T16:53:58.260Z,96488.78
2023-04-26T16:56:26.339Z,96494.50
2023-04-26T16:58:54.394Z,96493.50
2023-04-26T17:01:22.669Z,96498.06
2023-04-26T17:03:52.335Z,96499.22
2023-04-26T17:06:22.844Z,96497.63
2023-04-26T17:08:52.349Z,96502.91
2023-04-26T17:11:20.570Z,96504.97
2023-04-26T17:13:48.644Z,96499.13
2023-04-26T17:16:16.887Z,96502.69
2023-04-26T17:18:45.104Z,96502.75
2023-04-26T17:21:13.198Z,96502.19
2023-04-26T17:23:43.731Z,96503.81
2023-04-26T17:26:11.989Z,96510.00
2023-04-26T17:28:40.112Z,96511.84
2023-04-26T17:31:08.175Z,96516.13
2023-04-26T17:33:36.886Z,96512.13
2023-04-26T17:36:06.312Z,96519.47
2023-04-26T17:38:34.411Z,96517.63
2023-04-26T17:41:04.349Z,96519.69
2023-04-26T17:43:32.572Z,96511.41
2023-04-26T17:46:01.174Z,96513.09
2023-04-26T17:48:29.890Z,96520.44
2023-04-26T17:50:58.162Z,96517.81
2023-04-26T17:56:20.816Z,96528.69
2023-04-26T17:58:49.056Z,96538.66
2023-04-26T18:01:17.471Z,96533.84
2023-04-26T18:03:46.514Z,96530.81
2023-04-26T18:06:14.758Z,96537.78
2023-04-26T18:08:42.989Z,96536.53
2023-04-26T18:11:11.040Z,96538.22
2023-04-26T18:13:40.999Z,96538.69
2023-04-26T18:16:09.082Z,96539.94
2023-04-26T18:18:37.174Z,96542.78
2023-04-26T18:21:05.432Z,96546.31
2023-04-26T18:23:34.393Z,96541.47
2023-04-26T18:26:02.657Z,96542.78
2023-04-26T18:28:31.181Z,96555.84
2023-04-26T18:31:01.409Z,96546.16
2023-04-26T18:33:31.312Z,96563.44
2023-04-26T18:35:59.386Z,96557.59
2023-04-26T18:38:27.438Z,96568.16
2023-04-26T18:40:55.898Z,96566.53
2023-04-26T18:43:24.052Z,96567.53
2023-04-26T18:45:52.695Z,96571.22
2023-04-26T18:48:22.265Z,96567.75
2023-04-26T18:50:54.469Z,96572.09
2023-04-26T18:53:23.581Z,96576.78
2023-04-26T18:55:53.090Z,96581.84
2023-04-26T18:58:21.310Z,96582.03
2023-04-26T19:00:49.970Z,96583.28
2023-04-26T19:03:18.532Z,96581.09
2023-04-26T19:05:48.249Z,96585.31
2023-04-26T19:08:18.236Z,96590.38
2023-04-26T19:10:46.740Z,96593.84
2023-04-26T19:13:14.827Z,96604.59
2023-04-26T19:15:43.454Z,96600.38
2023-04-26T19:18:16.832Z,96601.53
2023-04-26T19:20:45.340Z,96606.22
2023-04-26T19:23:14.918Z,96611.28
2023-04-26T19:25:43.387Z,96613.13
2023-04-26T19:28:11.531Z,96612.53
2023-04-26T19:30:39.909Z,96613.75
2023-04-26T19:33:08.049Z,96611.94
2023-04-26T19:35:36.414Z,96621.88
2023-04-26T19:38:06.670Z,96625.97
2023-04-26T19:40:36.132Z,96626.25
2023-04-26T19:43:04.169Z,96629.31
2023-04-26T19:45:32.249Z,96629.47
2023-04-26T19:48:00.388Z,96624.22
2023-04-26T19:50:28.769Z,96630.72
2023-04-26T19:52:56.913Z,96637.03
2023-04-26T19:55:27.235Z,96637.03
2023-04-26T19:57:59.334Z,96637.41
2023-04-26T20:00:30.655Z,96635.19
2023-04-26T20:02:59.462Z,96629.13
2023-04-26T20:05:28.698Z,96628.09
2023-04-26T20:07:58.399Z,96637.44
2023-04-26T20:10:26.788Z,96636.47
2023-04-26T20:12:54.820Z,96636.41
2023-04-26T20:15:24.788Z,96640.09
2023-04-26T20:17:53.094Z,96638.47
2023-04-26T20:20:21.388Z,96640.50
2023-04-26T20:22:49.485Z,96646.81
2023-04-26T20:25:19.673Z,96642.56
2023-04-26T20:27:47.825Z,96640.13
2023-04-26T20:30:16.756Z,96640.56
2023-04-26T20:32:46.799Z,96640.59
2023-04-26T20:35:14.956Z,96644.88
2023-04-26T20:37:43.132Z,96639.88
2023-04-26T20:40:12.249Z,96644.81
2023-04-26T20:42:40.821Z,96638.13
2023-04-26T20:45:10.733Z,96636.94
2023-04-26T20:47:38.874Z,96636.19
2023-04-26T20:50:10.083Z,96638.84
2023-04-26T20:52:38.199Z,96645.75
2023-04-26T20:55:07.606Z,96636.00
2023-04-26T20:57:36.071Z,96637.91
2023-04-26T21:00:06.161Z,96636.66
2023-04-26T21:02:34.481Z,96643.59
2023-04-26T21:05:02.645Z,96640.16
2023-04-26T21:07:32.142Z,96645.03
2023-04-26T21:10:00.438Z,96635.94
2023-04-26T21:12:29.317Z,96632.28
2023-04-26T21:14:57.361Z,96637.97
2023-04-26T21:17:25.486Z,96629.28
2023-04-26T21:19:53.703Z,96633.75
2023-04-26T21:22:21.772Z,96642.63
2023-04-26T21:24:57.329Z,96634.94
2023-04-26T21:27:26.189Z,96634.97
2023-04-26T21:29:54.264Z,96641.44
2023-04-26T21:32:22.319Z,96640.63
2023-04-26T21:34:50.553Z,96630.09
2023-04-26T21:37:18.696Z,96639.81
2023-04-26T21:39:46.725Z,96634.97
2023-04-26T21:42:16.625Z,96647.34
2023-04-26T21:44:44.885Z,96636.03
2023-04-26T21:47:18.047Z,96642.88
2023-04-26T21:49:46.471Z,96639.47
2023-04-26T21:52:17.854Z,96638.25
2023-04-26T21:54:46.201Z,96637.66
2023-04-26T21:57:15.748Z,96635.63
2023-04-26T21:59:44.380Z,96639.88
2023-04-26T22:02:12.499Z,96638.91
2023-04-26T22:04:40.640Z,96640.50
2023-04-26T22:07:08.713Z,96650.41
2023-04-26T22:09:36.843Z,96648.00
2023-04-26T22:12:05.478Z,96643.94
2023-04-26T22:14:34.838Z,96644.75
2023-04-26T22:17:03.757Z,96643.31
2023-04-26T22:19:31.781Z,96651.19
2023-04-26T22:21:59.859Z,96647.97
2023-04-26T22:24:27.936Z,96648.97
2023-04-26T22:26:55.992Z,96652.84
2023-04-26T22:29:24.030Z,96647.56
2023-04-26T22:31:53.434Z,96646.78
2023-04-26T22:34:21.505Z,96644.31
2023-04-26T22:36:49.560Z,96643.31
2023-04-26T22:39:17.606Z,96652.22
2023-04-26T22:41:45.674Z,96652.81
2023-04-26T22:44:14.979Z,96643.72
2023-04-26T22:46:43.089Z,96653.22
2023-04-26T22:49:12.829Z,96646.16
2023-04-26T22:51:42.787Z,96647.38
2023-04-26T22:54:16.273Z,96641.06
2023-04-26T22:56:44.316Z,96651.00
2023-04-26T22:59:12.782Z,96657.28
2023-04-26T23:01:41.203Z,96646.97
2023-04-26T23:04:09.420Z,96651.84
2023-04-26T23:06:38.937Z,96652.84
2023-04-26T23:09:06.989Z,96651.84
2023-04-26T23:11:35.073Z,96655.66
2023-04-26T23:14:04.465Z,96662.16
2023-04-26T23:16:34.174Z,96666.59
2023-04-26T23:19:02.283Z,96673.88
2023-04-26T23:21:30.391Z,96664.78
2023-04-26T23:23:59.816Z,96664.78
2023-04-26T23:26:27.845Z,96656.09
2023-04-26T23:28:56.125Z,96658.31
2023-04-26T23:31:24.265Z,96658.72
2023-04-26T23:33:52.412Z,96651.84
2023-04-26T23:36:20.470Z,96653.66
2023-04-26T23:38:48.687Z,96660.75
2023-04-26T23:41:22.203Z,96650.03
2023-04-26T23:43:50.287Z,96653.25
2023-04-26T23:46:18.372Z,96650.81
2023-04-26T23:48:46.481Z,96652.47
2023-04-26T23:51:14.579Z,96656.72
2023-04-26T23:53:42.614Z,96651.66
2023-04-26T23:56:11.040Z,96657.94
2023-04-26T23:58:40.562Z,96653.06
